Arsenal, Utah
Current Conditions -  °F | °C
As of 3:58 AM on Friday 19 Dec 2014 (Local Time) from KHIF Reporting Station
Overcast Overcast  
Wind Chill: 25°   Ceiling: 6000
Heat Index: 33°   Visibility: 10mi
Dew Point: 24°   Wind: 9mph
Humidity: 71%   Direction: 120°ESE
Pressure: 30.18"   Gusts: NA
Location:  41.123°N, 112.063°W
Report Text: KHIF 191058Z AUTO 12008KT 10SM OVC060 00/M04 A3018 RMK AO2 SLP221 T00031044
Loading
Personal Weather Stations






























Interactive Weather Map New forecast layout! Learn more

10-Day Weather Forecast

Advertisements
Track Severe Weather on mobile